Time;durP1;ratioP1;P1;durP2;ratioP2;P2;SDS_P1;SDS_P2;PMS_P1;PMS_P2;Temp;Humidity;BMP_temperature;BMP_pressure;BME280_temperature;BME280_humidity;BME280_pressure;Samples;Min_cycle;Max_cycle;Signal;HPM_P1;HPM_P2
2024/03/03 00:05:00;;;;;;;75.10;51.80;;;;;;;7.85;90.48;98142.91;226723;1273;22631;-79
2024/03/03 00:10:07;;;;;;;78.30;52.90;;;;;;;7.74;90.30;98138.39;226829;1273;22539;-79
2024/03/03 00:15:09;;;;;;;74.80;49.20;;;;;;;7.67;90.07;98136.29;226874;1269;22533;-79
2024/03/03 00:20:11;;;;;;;72.50;48.80;;;;;;;7.61;89.98;98136.63;226766;1273;22527;-79
2024/03/03 00:25:13;;;;;;;70.80;47.90;;;;;;;7.57;90.34;98140.98;226713;1273;22548;-78
2024/03/03 00:30:15;;;;;;;64.20;43.60;;;;;;;7.54;90.07;98140.27;226815;1273;25361;-79
2024/03/03 00:35:17;;;;;;;63.70;44.20;;;;;;;7.54;90.41;98134.77;226685;1270;22538;-79
2024/03/03 00:40:19;;;;;;;64.20;44.00;;;;;;;7.55;90.20;98134.95;226755;1271;22528;-79
2024/03/03 00:45:21;;;;;;;62.50;43.30;;;;;;;7.58;90.47;98138.98;226771;1273;22967;-79
2024/03/03 00:50:23;;;;;;;63.00;43.00;;;;;;;7.61;90.47;98135.05;226542;1269;184320;-79
2024/03/03 00:55:25;;;;;;;57.70;39.90;;;;;;;7.63;90.17;98133.73;226790;1273;24317;-79
2024/03/03 01:00:28;;;;;;;57.00;39.80;;;;;;;7.64;90.05;98137.15;226640;1273;22562;-79
2024/03/03 01:05:30;;;;;;;55.40;37.20;;;;;;;7.66;90.13;98131.34;226839;1270;22534;-78
2024/03/03 01:10:32;;;;;;;44.90;30.90;;;;;;;7.68;89.81;98130.27;226824;1273;22522;-79
2024/03/03 01:15:34;;;;;;;36.30;25.50;;;;;;;7.68;89.84;98129.63;226699;1273;23444;-78
2024/03/03 01:20:36;;;;;;;25.50;18.10;;;;;;;7.71;90.00;98133.22;226761;1270;22558;-79
2024/03/03 01:25:38;;;;;;;24.60;17.20;;;;;;;7.76;89.82;98130.10;226789;1273;22512;-79
2024/03/03 01:30:40;;;;;;;21.00;15.50;;;;;;;7.84;89.90;98129.67;226805;1273;22514;-79
2024/03/03 01:35:42;;;;;;;22.50;15.60;;;;;;;7.91;89.67;98131.44;226776;1273;25284;-79
2024/03/03 01:40:50;;;;;;;19.80;15.30;;;;;;;7.96;89.65;98136.23;226822;1251;22558;-79
2024/03/03 01:45:53;;;;;;;21.80;15.20;;;;;;;8.00;89.34;98132.23;226866;1273;22568;-79
2024/03/03 01:50:56;;;;;;;19.90;14.80;;;;;;;8.07;89.53;98131.40;226829;1270;26299;-79
2024/03/03 01:55:59;;;;;;;19.60;14.00;;;;;;;8.14;88.95;98124.59;226830;1273;22538;-80
2024/03/03 02:01:01;;;;;;;18.40;12.90;;;;;;;8.20;89.09;98119.41;226902;1273;22554;-78
2024/03/03 02:06:04;;;;;;;18.70;12.40;;;;;;;8.26;88.76;98112.73;226853;1270;25373;-79
2024/03/03 02:11:06;;;;;;;12.90;10.10;;;;;;;8.32;88.67;98110.99;226901;1273;22527;-79
2024/03/03 02:16:08;;;;;;;16.60;13.00;;;;;;;8.36;88.28;98108.98;226847;1270;22541;-79
2024/03/03 02:21:10;;;;;;;17.90;13.50;;;;;;;8.40;88.27;98108.08;226880;1270;22531;-79
2024/03/03 02:26:13;;;;;;;16.60;12.10;;;;;;;8.40;88.02;98106.46;226790;1267;22519;-79
2024/03/03 02:31:15;;;;;;;11.80;9.70;;;;;;;8.40;87.87;98104.52;226881;1270;22569;-78
2024/03/03 02:36:17;;;;;;;12.10;8.70;;;;;;;8.41;87.94;98100.55;226955;1273;24237;-78
2024/03/03 02:41:19;;;;;;;12.10;8.70;;;;;;;8.42;87.79;98099.92;226918;1267;22601;-78
2024/03/03 02:46:21;;;;;;;12.80;9.40;;;;;;;8.40;87.39;98094.44;226726;1270;22538;-78
2024/03/03 02:51:26;;;;;;;16.80;12.40;;;;;;;8.36;87.24;98085.56;226778;1267;22537;-78
2024/03/03 02:56:29;;;;;;;18.70;13.70;;;;;;;8.26;87.45;98084.82;226836;1256;25352;-78
2024/03/03 03:01:31;;;;;;;21.40;15.50;;;;;;;8.17;87.24;98087.60;226807;1270;22524;-78
2024/03/03 03:06:34;;;;;;;25.30;16.90;;;;;;;8.07;87.08;98086.77;226894;1273;22535;-79
2024/03/03 03:11:37;;;;;;;22.90;16.60;;;;;;;8.00;87.29;98085.04;226887;1273;22549;-78
2024/03/03 03:16:41;;;;;;;25.30;19.10;;;;;;;7.90;86.80;98085.14;226750;1270;22534;-79
2024/03/03 03:21:43;;;;;;;26.40;19.20;;;;;;;7.76;86.88;98081.90;226839;1273;22461;-79
2024/03/03 03:26:45;;;;;;;21.80;16.60;;;;;;;7.61;86.79;98076.89;226738;1273;22537;-79
2024/03/03 03:31:47;;;;;;;20.60;15.80;;;;;;;7.46;86.95;98073.29;226887;1273;22554;-79
2024/03/03 03:36:49;;;;;;;20.40;14.90;;;;;;;7.34;87.19;98070.20;226912;1273;22534;-79
2024/03/03 03:41:51;;;;;;;17.30;13.80;;;;;;;7.25;87.16;98070.47;226875;1273;22951;-79
2024/03/03 03:46:53;;;;;;;17.40;13.00;;;;;;;7.16;87.37;98073.91;226851;1257;22588;-78
2024/03/03 03:51:56;;;;;;;18.30;13.20;;;;;;;7.06;87.15;98074.44;226904;1273;22520;-79
2024/03/03 03:56:58;;;;;;;18.60;13.40;;;;;;;6.95;87.25;98075.63;226900;1250;22536;-79
2024/03/03 04:02:03;;;;;;;20.00;13.60;;;;;;;6.83;87.18;98079.33;226940;1272;22540;-79
2024/03/03 04:07:06;;;;;;;16.90;13.90;;;;;;;6.71;87.21;98082.68;226961;1267;22534;-79
2024/03/03 04:12:08;;;;;;;20.60;15.90;;;;;;;6.61;87.78;98080.70;226975;1273;22541;-79
2024/03/03 04:17:10;;;;;;;32.20;23.70;;;;;;;6.50;87.68;98085.09;226949;1268;22585;-79
2024/03/03 04:22:12;;;;;;;31.20;22.80;;;;;;;6.40;87.79;98082.48;226744;1273;22719;-79
2024/03/03 04:27:15;;;;;;;34.10;24.30;;;;;;;6.30;87.77;98083.74;226904;1270;22548;-79
2024/03/03 04:32:17;;;;;;;36.90;27.50;;;;;;;6.21;87.86;98080.20;226904;1265;22557;-79
2024/03/03 04:37:19;;;;;;;47.80;34.30;;;;;;;6.12;88.11;98078.20;226933;1273;22547;-79
2024/03/03 04:42:21;;;;;;;50.10;36.70;;;;;;;6.08;88.41;98076.94;226960;1267;22534;-80
2024/03/03 04:47:23;;;;;;;55.90;39.80;;;;;;;6.08;88.90;98077.16;226825;1269;23116;-79
2024/03/03 04:52:26;;;;;;;59.20;40.70;;;;;;;6.00;88.51;98077.48;226961;1273;22530;-79
2024/03/03 04:57:28;;;;;;;61.20;42.60;;;;;;;5.91;88.72;98078.56;227014;1273;22577;-79
2024/03/03 05:02:30;;;;;;;65.70;45.80;;;;;;;5.81;88.71;98081.06;226925;1254;22534;-78
2024/03/03 05:07:33;;;;;;;65.20;45.50;;;;;;;5.74;88.93;98076.27;226967;1271;22525;-78
2024/03/03 05:12:35;;;;;;;70.30;50.90;;;;;;;5.68;89.24;98074.17;227029;1266;22580;-79
2024/03/03 05:17:37;;;;;;;72.90;51.50;;;;;;;5.65;89.43;98076.91;226994;1272;22548;-79
2024/03/03 05:22:39;;;;;;;73.70;51.30;;;;;;;5.62;89.50;98076.83;226949;1270;22534;-79
2024/03/03 05:27:41;;;;;;;77.10;50.80;;;;;;;5.62;89.67;98069.33;227072;1270;22548;-79
2024/03/03 05:32:43;;;;;;;73.60;50.30;;;;;;;5.60;89.62;98067.77;227039;1273;22620;-79
2024/03/03 05:37:45;;;;;;;71.90;49.10;;;;;;;5.57;89.69;98066.13;227010;1272;22523;-79
2024/03/03 05:42:47;;;;;;;71.60;50.00;;;;;;;5.56;89.93;98067.29;227014;1270;22551;-79
2024/03/03 05:47:49;;;;;;;67.90;46.80;;;;;;;5.53;89.59;98068.05;226939;1267;22526;-79
2024/03/03 05:52:51;;;;;;;65.10;44.90;;;;;;;5.48;89.46;98064.44;227049;1273;22550;-79
2024/03/03 05:57:54;;;;;;;71.00;47.50;;;;;;;5.47;89.37;98068.59;227003;1273;22540;-79
2024/03/03 06:02:57;;;;;;;68.80;48.80;;;;;;;5.46;89.53;98071.98;226906;1271;22539;-79
2024/03/03 06:07:59;;;;;;;65.90;44.90;;;;;;;5.47;89.87;98070.98;226867;1269;25226;-80
2024/03/03 06:13:01;;;;;;;69.80;46.80;;;;;;;5.51;89.61;98077.10;226949;1270;22577;-79
2024/03/03 06:18:04;;;;;;;64.00;44.90;;;;;;;5.57;90.00;98083.95;226890;1271;22533;-79
2024/03/03 06:23:07;;;;;;;64.30;44.40;;;;;;;5.66;90.12;98083.78;226968;1273;22576;-79
2024/03/03 06:28:09;;;;;;;65.70;45.20;;;;;;;5.76;90.06;98087.44;226934;1273;22537;-79
2024/03/03 06:33:13;;;;;;;56.30;39.80;;;;;;;5.82;90.21;98085.84;226913;1273;22541;-79
2024/03/03 06:38:15;;;;;;;61.00;41.50;;;;;;;5.95;90.41;98084.59;227047;1270;25373;-79
2024/03/03 06:43:17;;;;;;;50.90;37.40;;;;;;;6.06;90.23;98087.93;226879;1271;22541;-79
2024/03/03 06:48:19;;;;;;;58.30;40.60;;;;;;;6.19;90.71;98090.70;226927;1270;22535;-78
2024/03/03 06:53:22;;;;;;;57.20;38.50;;;;;;;6.32;90.26;98093.05;226664;1273;22667;-79
2024/03/03 06:58:23;;;;;;;52.30;38.30;;;;;;;6.43;89.97;98087.36;226864;1269;22628;-79
2024/03/03 07:08:40;;;;;;;56.80;39.10;;;;;;;6.71;90.02;98083.38;226848;1273;22561;-79
2024/03/03 07:13:42;;;;;;;55.50;38.60;;;;;;;6.92;89.99;98089.44;226912;1272;22541;-79
2024/03/03 07:18:44;;;;;;;51.50;37.20;;;;;;;7.17;90.56;98097.48;226720;1273;22526;-79
2024/03/03 07:23:46;;;;;;;50.80;35.60;;;;;;;7.35;89.90;98101.56;226868;1264;22530;-80
2024/03/03 07:28:48;;;;;;;50.60;36.50;;;;;;;7.52;90.06;98099.52;226863;1269;22571;-79
2024/03/03 07:33:51;;;;;;;47.60;34.60;;;;;;;7.69;90.03;98095.94;226797;1270;22592;-78
2024/03/03 07:38:53;;;;;;;48.80;34.60;;;;;;;7.85;89.73;98095.66;226752;1271;22535;-79
2024/03/03 07:43:55;;;;;;;45.90;34.60;;;;;;;8.00;89.38;98091.88;226671;1270;22516;-79
2024/03/03 07:48:57;;;;;;;42.40;31.70;;;;;;;8.20;89.19;98091.60;226820;1270;22562;-79
2024/03/03 07:53:59;;;;;;;43.70;31.40;;;;;;;8.36;88.97;98091.11;226821;1270;22562;-79
2024/03/03 07:59:05;;;;;;;46.00;32.10;;;;;;;8.57;88.92;98090.50;226790;1271;22530;-80
2024/03/03 08:04:09;;;;;;;40.80;29.70;;;;;;;8.76;88.51;98093.34;226789;1269;22531;-79
2024/03/03 08:09:12;;;;;;;36.90;27.30;;;;;;;8.99;88.36;98086.71;226752;1265;23001;-80
2024/03/03 08:14:14;;;;;;;35.20;26.60;;;;;;;9.24;88.06;98087.48;226821;1270;22530;-80
2024/03/03 08:19:16;;;;;;;33.40;25.40;;;;;;;9.48;87.87;98091.59;226769;1272;22538;-79
2024/03/03 08:24:17;;;;;;;35.00;25.70;;;;;;;9.73;87.74;98094.17;226857;1271;22536;-79
2024/03/03 08:29:20;;;;;;;33.00;24.50;;;;;;;10.01;87.46;98088.30;226820;1268;22594;-79
2024/03/03 08:34:23;;;;;;;29.30;22.40;;;;;;;10.35;87.24;98085.83;226897;1273;22557;-79
2024/03/03 08:39:25;;;;;;;29.30;21.30;;;;;;;10.62;86.48;98076.83;226845;1271;22570;-80
2024/03/03 08:44:27;;;;;;;26.10;20.00;;;;;;;10.79;85.03;98079.73;226800;1273;22526;-80
2024/03/03 08:49:29;;;;;;;29.90;21.30;;;;;;;10.92;84.43;98073.03;226745;1268;22531;-80
2024/03/03 08:54:32;;;;;;;26.60;19.40;;;;;;;11.11;84.20;98072.08;226871;1267;24229;-80
2024/03/03 08:59:34;;;;;;;24.20;18.30;;;;;;;11.30;84.06;98066.60;226871;1270;24250;-79
2024/03/03 09:04:39;;;;;;;17.00;12.90;;;;;;;11.54;83.77;98063.55;226818;1269;22560;-80
2024/03/03 09:09:41;;;;;;;14.70;11.20;;;;;;;11.83;82.82;98056.45;226857;1269;22545;-80
2024/03/03 09:14:47;;;;;;;16.50;12.00;;;;;;;12.08;81.95;98047.20;226786;1269;22537;-80
2024/03/03 09:19:49;;;;;;;19.10;13.90;;;;;;;12.30;81.33;98047.10;226775;1270;22548;-80
2024/03/03 09:24:51;;;;;;;13.30;10.80;;;;;;;12.46;80.49;98039.13;226746;1273;24212;-80
2024/03/03 09:29:53;;;;;;;13.70;11.50;;;;;;;12.59;79.59;98040.73;226666;1266;22527;-80
2024/03/03 09:34:55;;;;;;;15.70;11.50;;;;;;;12.71;79.04;98040.69;226811;1271;22599;-79
2024/03/03 09:39:57;;;;;;;16.40;11.50;;;;;;;12.86;78.84;98031.42;226881;1270;22518;-79
2024/03/03 09:45:08;;;;;;;13.10;10.30;;;;;;;13.00;77.91;98034.58;226738;1271;22526;-80
2024/03/03 09:50:12;;;;;;;13.30;9.90;;;;;;;13.14;77.60;98036.60;226743;1269;22578;-80
2024/03/03 09:55:14;;;;;;;12.10;8.60;;;;;;;13.22;76.69;98038.99;226702;1270;22542;-80
2024/03/03 10:00:17;;;;;;;11.10;8.90;;;;;;;13.32;76.57;98031.20;226799;1270;22526;-80
2024/03/03 10:05:21;;;;;;;10.10;8.10;;;;;;;13.47;76.72;98031.61;226616;1273;22550;-80
2024/03/03 10:10:26;;;;;;;11.30;8.60;;;;;;;13.60;75.67;98029.95;226745;1273;22565;-80
2024/03/03 10:15:30;;;;;;;8.70;7.30;;;;;;;13.67;75.56;98023.60;226699;1270;22544;-80
2024/03/03 10:20:32;;;;;;;11.90;9.10;;;;;;;13.75;74.95;98018.23;226725;1270;22549;-80
2024/03/03 10:25:34;;;;;;;12.40;9.30;;;;;;;13.82;74.67;98016.37;226713;1270;22536;-80
2024/03/03 10:30:36;;;;;;;12.60;9.40;;;;;;;13.84;73.70;98011.23;226748;1271;24258;-80
2024/03/03 10:35:38;;;;;;;10.80;8.80;;;;;;;13.85;73.45;98006.80;226743;1273;22643;-80
2024/03/03 10:40:44;;;;;;;11.60;8.60;;;;;;;13.96;74.01;97996.13;226671;1271;23050;-80
2024/03/03 10:45:46;;;;;;;13.10;8.30;;;;;;;14.13;73.98;97995.16;226622;1270;22547;-81
2024/03/03 10:50:48;;;;;;;11.30;8.20;;;;;;;14.29;73.26;97986.39;226604;1266;22556;-80
2024/03/03 10:55:51;;;;;;;9.40;7.00;;;;;;;14.42;73.13;97981.70;226679;1273;25802;-80
2024/03/03 11:00:53;;;;;;;9.50;7.70;;;;;;;14.52;72.35;97975.70;226755;1271;22526;-80
2024/03/03 11:05:57;;;;;;;9.80;6.90;;;;;;;14.62;72.24;97973.92;226633;1271;22475;-79
2024/03/03 11:11:06;;;;;;;10.10;7.30;;;;;;;14.73;71.96;97966.91;226735;1273;22562;-80
2024/03/03 11:16:11;;;;;;;10.40;7.40;;;;;;;14.88;72.08;97963.80;226592;1273;22530;-80
2024/03/03 11:21:19;;;;;;;8.60;7.00;;;;;;;14.93;71.36;97958.50;226666;1272;22523;-81
2024/03/03 11:26:31;;;;;;;10.60;8.80;;;;;;;15.03;71.20;97955.65;226620;1273;23170;-80
2024/03/03 11:31:34;;;;;;;8.80;7.90;;;;;;;15.09;71.24;97947.73;226644;1273;22539;-79
2024/03/03 11:36:37;;;;;;;9.90;7.50;;;;;;;15.27;71.37;97943.86;226638;1269;22548;-80
2024/03/03 11:41:41;;;;;;;9.30;7.90;;;;;;;15.35;70.41;97937.46;226612;1270;22554;-80
2024/03/03 11:46:48;;;;;;;8.90;7.70;;;;;;;15.44;70.70;97927.83;226657;1273;22529;-79
2024/03/03 11:51:50;;;;;;;9.90;7.50;;;;;;;15.63;70.57;97923.98;226698;1272;23164;-81
2024/03/03 11:56:52;;;;;;;8.60;7.00;;;;;;;15.67;70.00;97919.09;226624;1271;22598;-80
2024/03/03 12:01:58;;;;;;;7.40;6.30;;;;;;;15.85;70.30;97908.77;226629;1271;22538;-80
2024/03/03 12:07:05;;;;;;;7.30;5.80;;;;;;;16.03;69.41;97903.50;226790;1271;22532;-80
2024/03/03 12:12:08;;;;;;;7.20;5.50;;;;;;;16.20;69.12;97903.38;226653;1272;22530;-80
2024/03/03 12:17:10;;;;;;;6.60;5.90;;;;;;;16.31;68.46;97897.98;226789;1272;22530;-80
2024/03/03 12:22:13;;;;;;;7.50;5.80;;;;;;;16.44;68.10;97891.23;226816;1269;22530;-80
2024/03/03 12:27:15;;;;;;;5.80;5.20;;;;;;;16.59;68.05;97884.27;226700;1269;22802;-80
2024/03/03 12:32:20;;;;;;;5.70;5.10;;;;;;;16.78;67.66;97878.91;226628;1271;22550;-80
2024/03/03 12:37:25;;;;;;;5.50;4.50;;;;;;;17.02;67.43;97874.73;226671;1272;22670;-80
2024/03/03 12:42:28;;;;;;;4.90;4.50;;;;;;;17.48;67.36;97868.00;226673;1271;22522;-80
2024/03/03 12:47:30;;;;;;;3.80;3.50;;;;;;;17.89;66.49;97867.75;226614;1273;22559;-80
2024/03/03 12:52:32;;;;;;;2.40;2.20;;;;;;;18.16;64.81;97866.90;226553;1273;186170;-80
2024/03/03 12:57:35;;;;;;;2.20;2.00;;;;;;;18.24;63.67;97862.20;226662;1273;23287;-80
2024/03/03 13:02:37;;;;;;;2.70;2.50;;;;;;;18.04;61.78;97864.39;226784;1270;22638;-80
2024/03/03 13:07:50;;;;;;;2.90;2.50;;;;;;;17.78;61.34;97865.23;226658;1273;22554;-80
2024/03/03 13:12:55;;;;;;;2.60;2.40;;;;;;;17.74;62.36;97857.55;226779;1273;22545;-81
2024/03/03 13:18:08;;;;;;;2.90;2.60;;;;;;;17.75;62.20;97849.66;226638;1273;22537;-80
2024/03/03 13:23:13;;;;;;;3.10;2.80;;;;;;;17.66;61.68;97845.73;226644;1267;22584;-80
2024/03/03 13:28:17;;;;;;;2.90;2.60;;;;;;;17.60;61.71;97846.96;226741;1272;22538;-80
2024/03/03 13:33:20;;;;;;;2.10;2.00;;;;;;;17.55;61.23;97845.26;226622;1250;25464;-80
2024/03/03 13:38:25;;;;;;;3.20;2.10;;;;;;;17.22;59.82;97843.27;226694;1271;22550;-80
2024/03/03 13:43:27;;;;;;;3.10;2.30;;;;;;;16.98;60.81;97840.96;226640;1273;22531;-79
2024/03/03 13:48:29;;;;;;;3.10;2.40;;;;;;;16.84;61.04;97839.44;226673;1273;22541;-81
2024/03/03 13:53:31;;;;;;;2.30;2.20;;;;;;;16.80;61.78;97832.45;226767;1273;22541;-80
2024/03/03 13:58:33;;;;;;;3.40;2.10;;;;;;;16.94;61.57;97827.90;226687;1271;25416;-80
2024/03/03 14:03:35;;;;;;;3.10;2.10;;;;;;;17.15;61.53;97827.89;226675;1272;22560;-80
2024/03/03 14:08:38;;;;;;;3.50;2.30;;;;;;;17.33;60.01;97823.39;226646;1268;25300;-80
2024/03/03 14:13:40;;;;;;;1.90;1.70;;;;;;;17.54;60.78;97822.77;226702;1272;22544;-81
2024/03/03 14:18:43;;;;;;;2.40;2.10;;;;;;;17.68;59.91;97819.08;226727;1273;25284;-80
2024/03/03 14:23:45;;;;;;;2.60;2.40;;;;;;;17.65;59.76;97825.67;226642;1271;22517;-80
2024/03/03 14:28:53;;;;;;;2.20;2.00;;;;;;;17.46;59.34;97821.41;226644;1273;23027;-80
2024/03/03 14:33:56;;;;;;;2.50;2.30;;;;;;;17.26;59.40;97819.77;226732;1272;22522;-79
2024/03/03 14:38:57;;;;;;;4.00;3.60;;;;;;;17.19;59.87;97814.64;226687;1272;22628;-80
2024/03/03 14:43:59;;;;;;;4.10;3.40;;;;;;;17.16;59.56;97812.36;226581;1270;22551;-80
2024/03/03 14:49:02;;;;;;;3.60;3.30;;;;;;;17.05;59.40;97812.96;226626;1273;22530;-80
2024/03/03 14:54:04;;;;;;;3.50;3.00;;;;;;;16.95;59.85;97817.13;226714;1272;22537;-80
2024/03/03 14:59:06;;;;;;;4.30;3.10;;;;;;;16.86;59.61;97812.56;226667;1272;25393;-80
2024/03/03 15:04:08;;;;;;;4.50;4.00;;;;;;;16.77;59.86;97815.88;226648;1273;22523;-80
2024/03/03 15:09:11;;;;;;;5.30;4.00;;;;;;;16.59;59.61;97811.02;226643;1271;22889;-81
2024/03/03 15:14:13;;;;;;;5.10;4.10;;;;;;;16.36;59.65;97808.90;226638;1271;22542;-80
2024/03/03 15:19:15;;;;;;;5.90;4.50;;;;;;;16.20;60.28;97814.79;226681;1273;22550;-79
2024/03/03 15:24:18;;;;;;;5.40;4.40;;;;;;;16.07;60.54;97814.61;226699;1271;22542;-79
2024/03/03 15:29:20;;;;;;;4.70;4.30;;;;;;;15.98;61.30;97813.32;226693;1271;22517;-79
2024/03/03 15:34:22;;;;;;;6.80;4.80;;;;;;;15.83;61.78;97809.86;226699;1271;24762;-80
2024/03/03 15:39:24;;;;;;;6.90;5.10;;;;;;;15.67;61.89;97806.55;226694;1273;22667;-80
2024/03/03 15:44:27;;;;;;;9.50;5.10;;;;;;;15.51;62.11;97812.14;226675;1271;22532;-79
2024/03/03 15:49:30;;;;;;;5.70;4.60;;;;;;;15.36;62.57;97812.65;226715;1268;22534;-80
2024/03/03 15:54:32;;;;;;;5.70;4.50;;;;;;;15.24;62.56;97815.33;226752;1271;22605;-80
2024/03/03 15:59:34;;;;;;;4.10;3.30;;;;;;;15.15;62.23;97817.63;226766;1272;25340;-80
2024/03/03 16:04:36;;;;;;;3.90;3.10;;;;;;;15.01;61.43;97817.75;226677;1273;22530;-80
2024/03/03 16:09:38;;;;;;;4.10;3.40;;;;;;;14.89;61.62;97826.95;226635;1271;22545;-80
2024/03/03 16:14:40;;;;;;;3.70;3.20;;;;;;;14.77;61.50;97828.55;226688;1273;22534;-80
2024/03/03 16:19:42;;;;;;;4.00;3.50;;;;;;;14.63;61.55;97827.59;226793;1273;22585;-80
2024/03/03 16:24:44;;;;;;;5.10;3.40;;;;;;;14.46;61.41;97833.64;226647;1273;22537;-79
2024/03/03 16:29:46;;;;;;;4.30;3.70;;;;;;;14.29;61.66;97832.31;226701;1273;22573;-80
2024/03/03 16:34:48;;;;;;;4.00;3.60;;;;;;;14.12;61.85;97837.71;226718;1264;22531;-80
2024/03/03 16:39:51;;;;;;;4.10;3.70;;;;;;;13.95;62.16;97836.35;226602;1272;22570;-79
2024/03/03 16:44:53;;;;;;;4.80;3.60;;;;;;;13.80;62.19;97839.56;226688;1273;22562;-80
2024/03/03 16:49:55;;;;;;;6.50;4.60;;;;;;;13.67;62.51;97840.16;226718;1273;22569;-79
2024/03/03 16:54:57;;;;;;;6.20;4.30;;;;;;;13.56;62.74;97840.60;226714;1273;22529;-79
2024/03/03 16:59:59;;;;;;;6.50;5.00;;;;;;;13.46;62.87;97842.98;226808;1273;22550;-79
2024/03/03 17:05:01;;;;;;;7.30;5.00;;;;;;;13.38;62.90;97843.67;226630;1272;22569;-79
2024/03/03 17:10:08;;;;;;;8.50;5.00;;;;;;;13.30;63.17;97847.94;226656;1272;22550;-79
2024/03/03 17:15:11;;;;;;;5.30;4.20;;;;;;;13.21;63.17;97849.32;226720;1272;22536;-79
2024/03/03 17:20:13;;;;;;;7.20;4.10;;;;;;;13.15;63.24;97851.05;226701;1273;22534;-80
2024/03/03 17:25:15;;;;;;;6.00;4.80;;;;;;;13.09;63.43;97852.90;226649;1272;22548;-80
2024/03/03 17:30:18;;;;;;;5.70;4.80;;;;;;;13.04;63.39;97851.31;226646;1269;22540;-79
2024/03/03 17:35:23;;;;;;;10.60;7.30;;;;;;;12.99;63.53;97853.51;226739;1272;22564;-79
2024/03/03 17:40:27;;;;;;;11.70;8.50;;;;;;;12.94;63.69;97852.18;226710;1271;22549;-79
2024/03/03 17:45:29;;;;;;;16.60;10.80;;;;;;;12.86;64.20;97858.58;226684;1272;22533;-79
2024/03/03 17:50:32;;;;;;;16.10;11.00;;;;;;;12.78;64.39;97856.77;226665;1272;22544;-80
2024/03/03 17:55:34;;;;;;;17.00;11.00;;;;;;;12.70;64.46;97853.54;226666;1273;22530;-79
2024/03/03 18:00:36;;;;;;;13.90;9.60;;;;;;;12.63;64.59;97845.91;226599;1273;22554;-79
2024/03/03 18:05:38;;;;;;;12.10;9.00;;;;;;;12.58;64.84;97849.76;226666;1273;22546;-80
2024/03/03 18:10:40;;;;;;;14.60;10.50;;;;;;;12.52;65.05;97850.02;226638;1273;22556;-80
2024/03/03 18:15:43;;;;;;;15.90;10.80;;;;;;;12.47;65.59;97853.05;226609;1272;22541;-79
2024/03/03 18:20:45;;;;;;;16.60;11.90;;;;;;;12.42;65.98;97851.90;226657;1273;22579;-78
2024/03/03 18:25:48;;;;;;;21.20;13.60;;;;;;;12.36;66.18;97856.77;226662;1272;23122;-79
2024/03/03 18:30:51;;;;;;;21.80;14.00;;;;;;;12.29;66.53;97856.05;226708;1272;24487;-79
2024/03/03 18:35:53;;;;;;;24.40;15.60;;;;;;;12.22;66.81;97856.08;226805;1269;22533;-79
2024/03/03 18:40:55;;;;;;;20.80;14.80;;;;;;;12.17;67.38;97859.40;226766;1271;23257;-79
2024/03/03 18:46:01;;;;;;;26.10;18.00;;;;;;;12.13;67.82;97861.77;226624;1272;22533;-79
2024/03/03 18:51:05;;;;;;;25.90;17.40;;;;;;;12.06;68.35;97858.08;226769;1272;22541;-80
2024/03/03 18:56:07;;;;;;;26.00;18.10;;;;;;;11.99;68.94;97860.53;226748;1272;22536;-79
2024/03/03 19:01:09;;;;;;;27.10;18.90;;;;;;;11.91;69.48;97856.92;226791;1273;22528;-79
2024/03/03 19:06:12;;;;;;;27.60;18.90;;;;;;;11.82;69.93;97850.89;226738;1273;22575;-79
2024/03/03 19:11:13;;;;;;;23.90;17.80;;;;;;;11.74;70.38;97848.81;226731;1272;22537;-80
2024/03/03 19:16:16;;;;;;;24.90;18.00;;;;;;;11.68;70.70;97852.25;226794;1272;22554;-79
2024/03/03 19:21:18;;;;;;;24.30;17.60;;;;;;;11.62;71.03;97860.42;226615;1267;22533;-79
2024/03/03 19:26:20;;;;;;;29.50;19.40;;;;;;;11.57;71.20;97865.48;226682;1269;22549;-79
2024/03/03 19:31:22;;;;;;;28.20;18.90;;;;;;;11.52;71.39;97860.52;226637;1272;25386;-79
2024/03/03 19:36:25;;;;;;;28.20;19.60;;;;;;;11.49;71.45;97861.90;226716;1272;22529;-79
2024/03/03 19:41:27;;;;;;;31.90;21.00;;;;;;;11.45;71.72;97868.34;226580;1273;22539;-78
2024/03/03 19:46:28;;;;;;;29.20;19.90;;;;;;;11.42;71.88;97866.71;226676;1273;22583;-79
2024/03/03 19:51:32;;;;;;;31.60;20.60;;;;;;;11.38;71.95;97860.52;226620;1273;22533;-78
2024/03/03 19:56:34;;;;;;;28.70;19.40;;;;;;;11.34;72.11;97860.63;226674;1273;22582;-79
2024/03/03 20:01:37;;;;;;;30.70;20.40;;;;;;;11.28;72.25;97861.60;226712;1273;22541;-79
2024/03/03 20:06:40;;;;;;;31.00;20.70;;;;;;;11.21;72.44;97863.17;226796;1273;22527;-79
2024/03/03 20:11:42;;;;;;;29.30;19.30;;;;;;;11.14;72.50;97862.77;226777;1272;25074;-79
2024/03/03 20:16:50;;;;;;;30.90;20.60;;;;;;;11.08;72.94;97866.84;226733;1269;22554;-79
2024/03/03 20:21:52;;;;;;;31.00;21.60;;;;;;;11.02;73.15;97867.19;226700;1273;22534;-79
2024/03/03 20:26:54;;;;;;;27.70;19.30;;;;;;;10.98;73.32;97874.70;226821;1273;22533;-78
2024/03/03 20:31:57;;;;;;;25.90;18.00;;;;;;;10.93;73.40;97875.39;226554;1273;22516;-79
2024/03/03 20:36:59;;;;;;;23.80;15.60;;;;;;;10.88;73.68;97876.75;226755;1273;22581;-79
2024/03/03 20:42:01;;;;;;;23.20;15.90;;;;;;;10.83;73.64;97876.95;226776;1273;22541;-78
2024/03/03 20:47:04;;;;;;;20.30;16.20;;;;;;;10.77;73.76;97870.73;226838;1270;22534;-78
2024/03/03 20:52:06;;;;;;;20.20;15.20;;;;;;;10.72;73.91;97874.80;226733;1273;22550;-78
2024/03/03 20:57:08;;;;;;;20.50;16.30;;;;;;;10.68;74.10;97873.52;226835;1270;22555;-79
2024/03/03 21:02:12;;;;;;;23.70;17.00;;;;;;;10.64;74.16;97867.66;226774;1272;22540;-79
2024/03/03 21:07:15;;;;;;;25.20;17.90;;;;;;;10.60;74.30;97869.38;226842;1270;25236;-79
2024/03/03 21:12:18;;;;;;;24.30;18.30;;;;;;;10.55;74.45;97869.55;226898;1270;25419;-79
2024/03/03 21:17:19;;;;;;;27.40;19.00;;;;;;;10.51;74.48;97866.79;226898;1273;22572;-79
2024/03/03 21:22:22;;;;;;;28.10;19.20;;;;;;;10.48;74.51;97869.96;226949;1273;22563;-78
2024/03/03 21:27:24;;;;;;;24.80;17.50;;;;;;;10.47;74.61;97870.70;226924;1273;22584;-78
2024/03/03 21:32:26;;;;;;;24.70;17.70;;;;;;;10.44;74.59;97870.13;226908;1270;22534;-80
2024/03/03 21:37:28;;;;;;;29.90;18.90;;;;;;;10.43;74.63;97870.35;226794;1270;22537;-79
2024/03/03 21:42:31;;;;;;;23.70;18.00;;;;;;;10.41;74.50;97864.95;226739;1267;22521;-79
2024/03/03 21:47:33;;;;;;;25.10;18.40;;;;;;;10.36;74.65;97866.08;226900;1273;22529;-79
2024/03/03 21:52:35;;;;;;;25.60;18.70;;;;;;;10.28;74.56;97862.30;226765;1270;22579;-79
2024/03/03 21:57:37;;;;;;;27.30;18.30;;;;;;;10.15;74.73;97867.70;226793;1273;22480;-79
2024/03/03 22:02:39;;;;;;;26.30;18.00;;;;;;;9.98;74.98;97867.98;226761;1273;22934;-78
2024/03/03 22:07:48;;;;;;;25.80;18.10;;;;;;;9.79;75.07;97864.80;226768;1273;23003;-78
2024/03/03 22:12:51;;;;;;;27.40;18.60;;;;;;;9.59;75.35;97858.29;226783;1273;24384;-79
2024/03/03 22:17:52;;;;;;;26.20;19.10;;;;;;;9.40;75.33;97860.34;226824;1273;22570;-80
2024/03/03 22:22:55;;;;;;;27.90;18.10;;;;;;;9.24;75.55;97859.10;226866;1272;22597;-79
2024/03/03 22:27:56;;;;;;;27.20;18.10;;;;;;;9.10;75.81;97860.02;226846;1273;24961;-79
2024/03/03 22:32:59;;;;;;;23.80;17.50;;;;;;;8.99;75.68;97859.21;226809;1270;22651;-80
2024/03/03 22:38:02;;;;;;;28.50;18.10;;;;;;;8.90;75.85;97859.39;226794;1266;25298;-79
2024/03/03 22:43:04;;;;;;;23.60;17.00;;;;;;;8.79;75.70;97857.94;226747;1273;22549;-80
2024/03/03 22:48:06;;;;;;;23.70;17.20;;;;;;;8.69;75.75;97855.13;226903;1273;23291;-79
2024/03/03 22:53:08;;;;;;;24.90;17.50;;;;;;;8.58;75.80;97851.77;226855;1270;22564;-80
2024/03/03 22:58:11;;;;;;;27.50;19.90;;;;;;;8.46;75.81;97850.16;226947;1270;22542;-79
2024/03/03 23:03:13;;;;;;;26.80;19.40;;;;;;;8.34;76.27;97849.78;226862;1273;22655;-80
2024/03/03 23:08:15;;;;;;;24.10;16.80;;;;;;;8.24;76.16;97852.52;226851;1270;22531;-80
2024/03/03 23:13:16;;;;;;;26.10;17.00;;;;;;;8.15;76.24;97849.80;226754;1273;22534;-79
2024/03/03 23:18:18;;;;;;;25.60;18.10;;;;;;;8.06;76.65;97850.92;226872;1273;22534;-79